Time;durP1;ratioP1;P1;durP2;ratioP2;P2;SDS_P1;SDS_P2;PMS_P1;PMS_P2;Temp;Humidity;BMP_temperature;BMP_pressure;BME280_temperature;BME280_humidity;BME280_pressure;Samples;Min_cycle;Max_cycle;Signal;HPM_P1;HPM_P2
2024/01/03 00:00:20;;;;;;;14.82;1.90;;;8.40;99.90;;;;;;5108782;28;20055;-66
2024/01/03 00:02:47;;;;;;;16.48;2.05;;;8.50;99.90;;;;;;5088398;28;20507;-67
2024/01/03 00:05:12;;;;;;;16.02;2.10;;;8.30;99.90;;;;;;5088149;28;20047;-67
2024/01/03 00:07:39;;;;;;;13.32;2.42;;;8.30;99.90;;;;;;5098942;28;20388;-66
2024/01/03 00:10:37;;;;;;;19.45;2.22;;;8.30;99.90;;;;;;5100430;28;20055;-67
2024/01/03 00:13:05;;;;;;;18.48;2.65;;;8.20;99.90;;;;;;5102886;27;20036;-68
2024/01/03 00:15:56;;;;;;;16.27;2.22;;;8.20;99.90;;;;;;5082862;28;20043;-67
2024/01/03 00:18:57;;;;;;;14.68;1.92;;;8.20;99.90;;;;;;5106268;28;20043;-66
2024/01/03 00:21:25;;;;;;;13.40;1.70;;;8.20;99.90;;;;;;5134125;27;20422;-66
2024/01/03 00:24:16;;;;;;;9.63;2.17;;;8.20;99.90;;;;;;5108649;27;20557;-66
2024/01/03 00:26:41;;;;;;;16.42;2.30;;;8.20;99.90;;;;;;5132281;27;20079;-67
2024/01/03 00:29:27;;;;;;;19.05;2.35;;;8.20;99.90;;;;;;5126266;27;20109;-66
2024/01/03 00:31:53;;;;;;;15.98;3.30;;;8.10;99.90;;;;;;5103616;27;20039;-66
2024/01/03 00:34:22;;;;;;;13.23;1.85;;;8.10;99.90;;;;;;5107202;28;20040;-66
2024/01/03 00:36:53;;;;;;;16.67;2.20;;;8.10;99.90;;;;;;5107430;28;20036;-66
2024/01/03 00:39:24;;;;;;;;;;;8.10;99.90;;;;;;5132932;27;20504;-66
2024/01/03 00:41:50;;;;;;;15.93;1.83;;;8.10;99.90;;;;;;5094317;28;19926;-67
2024/01/03 00:44:15;;;;;;;14.18;2.20;;;8.00;99.90;;;;;;5108666;28;20048;-66
2024/01/03 00:46:41;;;;;;;14.85;2.10;;;8.10;99.90;;;;;;5107581;28;20828;-66
2024/01/03 00:49:07;;;;;;;18.90;2.40;;;8.20;99.90;;;;;;5128401;27;20055;-66
2024/01/03 00:51:33;;;;;;;18.55;3.28;;;8.10;99.90;;;;;;5093059;28;20479;-65
2024/01/03 00:53:58;;;;;;;17.95;2.30;;;8.00;99.90;;;;;;5096538;28;20133;-67
2024/01/03 00:56:24;;;;;;;15.00;3.60;;;8.10;99.90;;;;;;5077366;28;20054;-67
2024/01/03 00:58:51;;;;;;;16.00;2.30;;;8.70;99.90;;;;;;5106471;28;20420;-65
2024/01/03 01:01:17;;;;;;;21.55;2.53;;;8.00;99.90;;;;;;5106137;28;20046;-67
2024/01/03 01:03:42;;;;;;;14.90;2.30;;;8.00;99.90;;;;;;5106206;28;20040;-67
2024/01/03 01:06:08;;;;;;;19.10;2.00;;;8.00;99.90;;;;;;5124838;27;20519;-66
2024/01/03 01:08:34;;;;;;;17.58;2.53;;;8.50;99.90;;;;;;5097250;28;20101;-67
2024/01/03 01:10:59;;;;;;;19.58;3.17;;;8.00;99.90;;;;;;5101987;28;20113;-65
2024/01/03 01:13:25;;;;;;;15.20;2.28;;;8.00;99.90;;;;;;5108665;27;20040;-66
2024/01/03 01:15:51;;;;;;;14.90;2.10;;;8.00;99.90;;;;;;5088975;28;20094;-66
2024/01/03 01:18:16;;;;;;;15.07;2.75;;;8.00;99.90;;;;;;5098830;28;20459;-66
2024/01/03 01:20:42;;;;;;;22.25;3.20;;;8.00;99.90;;;;;;5118261;27;20140;-67
2024/01/03 01:23:08;;;;;;;22.17;2.35;;;8.00;99.90;;;;;;5097103;28;20031;-66
2024/01/03 01:25:34;;;;;;;19.27;2.92;;;8.10;99.90;;;;;;5101172;28;20058;-67
2024/01/03 01:27:59;;;;;;;17.67;2.28;;;8.00;99.90;;;;;;5148205;27;20104;-67
2024/01/03 01:30:25;;;;;;;15.18;2.08;;;8.00;99.90;;;;;;5111193;27;20040;-66
2024/01/03 01:32:51;;;;;;;16.10;2.85;;;8.00;99.90;;;;;;5137463;27;20047;-67
2024/01/03 01:35:17;;;;;;;20.58;3.05;;;8.20;99.90;;;;;;5099245;28;20470;-67
2024/01/03 01:37:43;;;;;;;25.27;2.83;;;8.20;99.90;;;;;;5102813;28;20043;-67
2024/01/03 01:40:10;;;;;;;22.17;2.67;;;8.00;99.90;;;;;;5099437;28;20071;-68
2024/01/03 01:42:36;;;;;;;20.95;2.28;;;8.00;99.90;;;;;;5086560;28;20083;-66
2024/01/03 01:45:02;;;;;;;18.48;2.67;;;8.00;99.90;;;;;;5091747;28;20082;-66
2024/01/03 01:47:29;;;;;;;20.90;2.33;;;8.00;99.90;;;;;;5090277;28;20129;-66
2024/01/03 01:49:55;;;;;;;16.08;2.20;;;8.00;99.90;;;;;;5081106;28;20542;-67
2024/01/03 01:52:21;;;;;;;20.05;2.42;;;8.00;99.90;;;;;;5106395;28;20059;-66
2024/01/03 01:54:48;;;;;;;15.25;2.42;;;8.00;99.90;;;;;;5104487;28;20765;-66
2024/01/03 01:57:15;;;;;;;17.45;2.17;;;8.30;99.90;;;;;;5130368;27;20047;-66
2024/01/03 01:59:42;;;;;;;17.80;2.67;;;8.00;99.90;;;;;;5092103;27;20087;-66
2024/01/03 02:02:09;;;;;;;14.80;2.20;;;8.40;99.90;;;;;;5086100;28;20091;-66
2024/01/03 02:04:35;;;;;;;18.40;2.60;;;8.00;99.90;;;;;;5088494;28;20136;-66
2024/01/03 02:07:08;;;;;;;19.13;2.65;;;8.10;99.90;;;;;;5089309;28;20043;-66
2024/01/03 02:09:34;;;;;;;19.20;2.45;;;8.70;99.90;;;;;;5129969;27;20471;-67
2024/01/03 02:12:00;;;;;;;17.75;2.53;;;8.30;99.90;;;;;;5085924;28;20058;-66
2024/01/03 02:14:26;;;;;;;14.27;2.63;;;8.00;99.90;;;;;;5106091;28;20591;-68
2024/01/03 02:16:52;;;;;;;12.45;2.47;;;7.90;99.90;;;;;;5133028;27;20055;-67
2024/01/03 02:19:17;;;;;;;16.33;2.38;;;8.00;99.90;;;;;;5100001;28;20047;-67
2024/01/03 02:21:43;;;;;;;18.63;2.20;;;8.30;99.90;;;;;;5130466;27;20058;-66
2024/01/03 02:24:09;;;;;;;24.00;2.70;;;8.00;99.90;;;;;;5088168;28;20092;-65
2024/01/03 02:26:34;;;;;;;17.77;2.17;;;8.00;99.90;;;;;;5101934;28;20126;-66
2024/01/03 02:29:00;;;;;;;20.77;2.20;;;8.10;99.90;;;;;;5084356;28;20047;-69
2024/01/03 02:31:26;;;;;;;15.73;2.85;;;7.50;99.90;;;;;;5086838;28;20135;-67
2024/01/03 02:33:52;;;;;;;15.48;2.55;;;8.10;99.90;;;;;;5127015;27;20037;-66
2024/01/03 02:36:17;;;;;;;17.88;2.35;;;8.10;99.90;;;;;;5086192;28;20154;-66
2024/01/03 02:38:48;;;;;;;28.73;3.10;;;8.10;99.90;;;;;;5101069;28;20089;-65
2024/01/03 02:41:13;;;;;;;25.65;2.63;;;8.10;99.90;;;;;;5134360;27;20048;-66
2024/01/03 02:43:39;;;;;;;17.10;2.85;;;8.10;99.90;;;;;;5083670;28;20414;-66
2024/01/03 02:46:05;;;;;;;16.45;2.28;;;8.10;99.90;;;;;;5082545;28;20050;-66
2024/01/03 02:48:30;;;;;;;14.85;2.05;;;8.20;99.90;;;;;;5102513;28;20047;-67
2024/01/03 02:50:56;;;;;;;21.45;1.95;;;8.10;99.90;;;;;;5099849;28;20047;-66
2024/01/03 02:53:22;;;;;;;15.02;2.33;;;8.10;99.90;;;;;;5125713;27;20048;-67
2024/01/03 02:55:47;;;;;;;14.73;2.60;;;8.20;99.90;;;;;;5102018;28;20035;-69
2024/01/03 02:58:13;;;;;;;15.40;2.10;;;8.20;99.90;;;;;;5128536;27;20043;-69
2024/01/03 03:00:39;;;;;;;12.68;1.55;;;8.20;99.90;;;;;;5130619;27;20036;-67
2024/01/03 03:03:05;;;;;;;16.65;2.45;;;8.20;99.90;;;;;;5101876;28;20044;-66
2024/01/03 03:05:31;;;;;;;18.92;2.30;;;8.20;99.90;;;;;;5101130;28;20422;-66
2024/01/03 03:07:56;;;;;;;14.32;1.58;;;8.30;99.90;;;;;;5101449;28;20040;-67
2024/01/03 03:10:22;;;;;;;20.70;2.53;;;8.20;99.90;;;;;;5102885;28;20051;-66
2024/01/03 03:12:48;;;;;;;22.85;2.60;;;8.20;99.90;;;;;;5101657;28;20514;-67
2024/01/03 03:15:13;;;;;;;17.73;2.00;;;8.20;99.90;;;;;;5128265;27;20070;-66
2024/01/03 03:17:41;;;;;;;16.02;2.47;;;8.30;99.90;;;;;;5102921;28;20072;-67
2024/01/03 03:20:07;;;;;;;19.90;2.45;;;8.30;99.90;;;;;;5103389;28;20055;-67
2024/01/03 03:22:32;;;;;;;14.38;2.08;;;8.30;99.90;;;;;;5099831;28;20075;-66
2024/01/03 03:24:58;;;;;;;14.15;1.95;;;8.30;99.90;;;;;;5124714;27;20444;-67
2024/01/03 03:27:24;;;;;;;15.88;2.30;;;8.40;99.90;;;;;;5101458;28;20071;-67
2024/01/03 03:29:53;;;;;;;19.27;2.22;;;8.30;99.90;;;;;;5077512;28;20048;-68
2024/01/03 03:32:19;;;;;;;17.13;2.85;;;8.30;99.90;;;;;;5125316;27;20043;-67
2024/01/03 03:34:44;;;;;;;18.58;2.20;;;8.30;99.90;;;;;;5096535;28;20036;-67
2024/01/03 03:37:10;;;;;;;15.75;2.10;;;8.30;99.90;;;;;;5096557;28;20293;-66
2024/01/03 03:39:36;;;;;;;17.48;1.80;;;8.50;99.90;;;;;;5092518;28;21456;-67
2024/01/03 03:42:02;;;;;;;12.40;2.03;;;8.30;99.90;;;;;;5090496;28;20058;-69
2024/01/03 03:44:28;;;;;;;14.70;1.77;;;8.40;99.90;;;;;;5085623;28;20044;-67
2024/01/03 03:46:53;;;;;;;15.35;2.05;;;8.30;99.90;;;;;;5128494;27;20032;-66
2024/01/03 03:49:19;;;;;;;14.40;2.30;;;8.40;99.90;;;;;;5086561;28;20765;-67
2024/01/03 03:51:45;;;;;;;13.10;2.15;;;8.40;99.90;;;;;;5084531;28;20075;-66
2024/01/03 03:54:10;;;;;;;19.10;2.80;;;8.40;99.90;;;;;;5125868;27;20054;-66
2024/01/03 03:56:36;;;;;;;19.60;3.03;;;8.40;99.90;;;;;;5104299;28;20054;-66
2024/01/03 03:59:02;;;;;;;14.00;1.98;;;8.40;99.90;;;;;;5101340;28;20044;-67
2024/01/03 04:01:27;;;;;;;12.00;1.98;;;8.40;99.90;;;;;;5097717;28;20128;-68
2024/01/03 04:03:53;;;;;;;12.38;2.33;;;8.40;99.90;;;;;;5103765;28;20047;-67
2024/01/03 04:06:19;;;;;;;12.95;1.92;;;8.40;99.90;;;;;;5103126;28;20048;-67
2024/01/03 04:08:46;;;;;;;16.90;1.77;;;8.40;99.90;;;;;;5099473;28;20842;-67
2024/01/03 04:11:12;;;;;;;14.32;2.63;;;8.50;99.90;;;;;;5101196;28;20051;-68
2024/01/03 04:13:39;;;;;;;14.32;1.90;;;8.40;99.90;;;;;;5088594;28;20534;-68
2024/01/03 04:16:06;;;;;;;12.15;1.92;;;8.40;99.90;;;;;;5094447;28;20088;-68
2024/01/03 04:18:33;;;;;;;15.90;1.83;;;8.40;99.90;;;;;;5082146;28;20040;-67
2024/01/03 04:20:59;;;;;;;10.15;2.30;;;8.50;99.90;;;;;;5096965;28;20130;-67
2024/01/03 04:23:25;;;;;;;18.85;3.95;;;8.40;99.90;;;;;;5125097;27;20090;-65
2024/01/03 04:25:51;;;;;;;9.90;2.15;;;8.50;99.90;;;;;;5103577;28;20044;-66
2024/01/03 04:28:17;;;;;;;12.60;1.88;;;8.50;99.90;;;;;;5100336;28;20112;-67
2024/01/03 04:30:42;;;;;;;17.13;2.00;;;8.50;99.90;;;;;;5104233;28;21208;-68
2024/01/03 04:33:08;;;;;;;14.32;2.25;;;8.50;99.90;;;;;;5087733;28;20097;-65
2024/01/03 04:35:34;;;;;;;12.75;1.77;;;8.50;99.90;;;;;;5084542;28;20035;-66
2024/01/03 04:38:02;;;;;;;13.63;1.75;;;8.50;99.90;;;;;;5104160;28;20047;-66
2024/01/03 04:40:30;;;;;;;8.07;1.73;;;8.50;99.90;;;;;;5135882;27;20433;-66
2024/01/03 04:42:55;;;;;;;11.05;1.70;;;8.50;99.90;;;;;;5109236;27;20532;-68
2024/01/03 04:45:21;;;;;;;9.52;1.58;;;8.50;99.90;;;;;;5108140;27;20118;-67
2024/01/03 04:47:47;;;;;;;9.55;1.35;;;8.50;99.90;;;;;;5096427;28;20048;-68
2024/01/03 04:50:13;;;;;;;9.82;1.67;;;8.50;99.90;;;;;;5138419;27;20059;-69
2024/01/03 04:52:38;;;;;;;15.05;1.75;;;8.50;99.90;;;;;;5106028;27;20055;-68
2024/01/03 04:55:04;;;;;;;10.93;1.88;;;8.60;99.90;;;;;;5087135;28;20046;-66
2024/01/03 04:57:33;;;;;;;14.75;2.10;;;8.50;99.90;;;;;;5103378;28;20451;-66
2024/01/03 04:59:58;;;;;;;12.43;1.65;;;8.50;99.90;;;;;;5098885;28;20492;-66
2024/01/03 05:02:24;;;;;;;16.48;2.15;;;8.80;99.90;;;;;;5124750;27;20032;-66
2024/01/03 05:04:50;;;;;;;8.70;1.60;;;8.50;99.90;;;;;;5100722;28;20039;-67
2024/01/03 05:07:16;;;;;;;16.40;3.08;;;8.50;99.90;;;;;;5106066;28;20047;-67
2024/01/03 05:09:42;;;;;;;14.45;2.15;;;8.60;99.90;;;;;;5134208;27;20110;-67
2024/01/03 05:12:08;;;;;;;13.30;2.63;;;8.60;99.90;;;;;;5105288;28;20051;-67
2024/01/03 05:14:34;;;;;;;13.77;2.30;;;8.60;99.90;;;;;;5085117;28;20466;-67
2024/01/03 05:17:00;;;;;;;12.68;1.50;;;8.60;99.90;;;;;;5129365;27;20146;-66
2024/01/03 05:19:26;;;;;;;13.80;2.13;;;8.80;99.90;;;;;;5104497;28;20392;-67
2024/01/03 05:21:52;;;;;;;6.43;1.35;;;8.70;99.90;;;;;;5103368;28;20043;-66
2024/01/03 05:24:19;;;;;;;9.85;1.75;;;8.60;99.90;;;;;;5105380;28;20055;-67
2024/01/03 05:26:45;;;;;;;10.90;1.95;;;8.60;99.90;;;;;;5106798;28;20058;-67
2024/01/03 05:29:11;;;;;;;11.95;1.15;;;8.50;99.90;;;;;;5137330;27;20043;-68
2024/01/03 05:31:36;;;;;;;9.07;1.55;;;8.50;99.90;;;;;;5098728;28;20600;-67
2024/01/03 05:34:02;;;;;;;10.90;1.73;;;8.80;99.90;;;;;;5105501;28;20108;-67
2024/01/03 05:36:28;;;;;;;9.02;1.83;;;8.50;99.90;;;;;;5130445;27;20075;-66
2024/01/03 05:38:53;;;;;;;10.00;1.80;;;8.40;99.90;;;;;;5123050;27;20373;-67
2024/01/03 05:41:19;;;;;;;11.32;1.67;;;8.40;99.90;;;;;;5107206;28;20066;-66
2024/01/03 05:43:45;;;;;;;9.85;1.73;;;8.40;99.90;;;;;;5084110;28;20078;-67
2024/01/03 05:46:11;;;;;;;11.48;2.35;;;8.40;99.90;;;;;;5102403;28;20601;-67
2024/01/03 05:48:38;;;;;;;11.20;1.90;;;8.40;99.90;;;;;;5131418;27;20071;-66
2024/01/03 05:51:04;;;;;;;18.40;2.78;;;8.40;99.90;;;;;;5121175;27;20056;-66
2024/01/03 05:53:30;;;;;;;23.55;2.78;;;8.40;99.90;;;;;;5099904;27;20399;-66
2024/01/03 05:55:56;;;;;;;28.83;3.58;;;8.40;99.90;;;;;;5122086;27;20043;-67
2024/01/03 05:58:22;;;;;;;27.83;3.63;;;8.40;99.90;;;;;;5130721;27;20043;-67
2024/01/03 06:00:48;;;;;;;26.30;4.32;;;8.40;99.90;;;;;;5099957;28;20141;-67
2024/01/03 06:03:14;;;;;;;27.58;3.47;;;8.40;99.90;;;;;;5092802;28;20043;-67
2024/01/03 06:05:39;;;;;;;28.58;3.95;;;8.40;99.90;;;;;;5093453;28;20050;-67
2024/01/03 06:08:05;;;;;;;24.98;3.38;;;8.40;99.90;;;;;;5103049;28;20050;-67
2024/01/03 06:10:31;;;;;;;23.35;3.85;;;8.50;99.90;;;;;;5091315;28;20062;-67
2024/01/03 06:12:57;;;;;;;29.95;3.40;;;8.50;99.90;;;;;;5097233;28;20044;-66
2024/01/03 06:15:23;;;;;;;26.10;3.72;;;8.50;99.90;;;;;;5068856;28;20048;-67
2024/01/03 06:17:49;;;;;;;29.58;3.80;;;8.90;99.90;;;;;;5129082;27;20385;-67
2024/01/03 06:20:15;;;;;;;28.95;3.83;;;8.50;99.90;;;;;;5081072;28;20182;-67
2024/01/03 06:22:40;;;;;;;29.83;3.88;;;8.50;99.90;;;;;;5100756;27;20036;-68
2024/01/03 06:25:06;;;;;;;26.25;3.78;;;8.50;99.90;;;;;;5095663;28;20074;-68
2024/01/03 06:27:32;;;;;;;22.85;3.92;;;8.50;99.90;;;;;;5122316;27;20044;-68
2024/01/03 06:29:58;;;;;;;24.70;3.03;;;8.60;99.90;;;;;;5097205;28;20066;-67
2024/01/03 06:32:24;;;;;;;25.75;3.63;;;8.50;99.90;;;;;;5127789;27;20114;-67
2024/01/03 06:34:49;;;;;;;24.95;3.85;;;8.60;99.90;;;;;;5096311;28;20078;-67
2024/01/03 06:37:15;;;;;;;26.33;3.78;;;8.60;99.90;;;;;;5089218;27;20070;-68
2024/01/03 06:39:41;;;;;;;27.83;3.55;;;8.60;99.90;;;;;;5091871;27;20052;-67
2024/01/03 06:42:07;;;;;;;27.27;3.67;;;8.60;99.90;;;;;;5105274;27;20044;-67
2024/01/03 06:44:32;;;;;;;30.65;3.55;;;8.60;99.90;;;;;;5096907;27;20043;-66
2024/01/03 06:46:58;;;;;;;19.88;3.53;;;8.60;99.90;;;;;;5124744;27;20039;-67
2024/01/03 06:49:24;;;;;;;24.67;3.33;;;8.60;99.90;;;;;;5093889;28;21180;-67
2024/01/03 06:51:50;;;;;;;21.80;3.53;;;8.60;99.90;;;;;;5119556;27;21391;-67
2024/01/03 06:54:18;;;;;;;29.50;4.13;;;8.60;99.90;;;;;;5090814;28;20040;-66
2024/01/03 06:56:44;;;;;;;28.42;3.92;;;8.60;99.90;;;;;;5090824;28;20066;-68
2024/01/03 06:59:10;;;;;;;26.83;4.30;;;8.60;99.90;;;;;;5095640;28;20054;-67
2024/01/03 07:01:37;;;;;;;28.48;4.60;;;8.60;99.90;;;;;;5101446;27;20035;-67
2024/01/03 07:04:03;;;;;;;26.13;3.72;;;8.70;99.90;;;;;;5097644;28;20043;-66
2024/01/03 07:06:29;;;;;;;23.02;3.17;;;8.70;99.90;;;;;;5130356;27;20113;-67
2024/01/03 07:08:56;;;;;;;25.17;3.88;;;8.70;99.90;;;;;;5092299;28;20048;-67
2024/01/03 07:11:22;;;;;;;24.02;3.75;;;8.70;99.90;;;;;;5082225;28;20044;-67
2024/01/03 07:13:47;;;;;;;22.48;3.75;;;8.60;99.90;;;;;;5129638;27;20116;-66
2024/01/03 07:16:13;;;;;;;22.08;3.60;;;9.00;99.90;;;;;;5092551;28;20039;-67
2024/01/03 07:18:39;;;;;;;27.80;3.15;;;8.60;99.90;;;;;;5114885;27;20585;-67
2024/01/03 07:21:05;;;;;;;33.63;5.50;;;8.70;99.90;;;;;;5121615;27;20187;-67
2024/01/03 07:23:31;;;;;;;18.20;2.92;;;8.70;99.90;;;;;;5121280;27;20046;-66
2024/01/03 07:25:56;;;;;;;19.83;2.75;;;8.70;99.90;;;;;;5094959;28;20051;-67
2024/01/03 07:28:22;;;;;;;16.63;3.15;;;8.70;99.90;;;;;;5094292;28;20050;-67
2024/01/03 07:30:48;;;;;;;25.95;4.00;;;8.70;99.90;;;;;;5101276;28;20047;-67
2024/01/03 07:33:13;;;;;;;20.48;3.25;;;8.70;99.90;;;;;;5129816;27;20768;-68
2024/01/03 07:35:39;;;;;;;19.73;3.38;;;8.70;99.90;;;;;;5120146;27;20051;-67
2024/01/03 07:38:06;;;;;;;22.83;3.80;;;8.60;99.90;;;;;;5085841;28;21174;-67
2024/01/03 07:40:32;;;;;;;23.67;3.20;;;8.60;99.90;;;;;;5068983;28;20272;-67
2024/01/03 07:42:57;;;;;;;20.88;3.00;;;8.60;99.90;;;;;;5082138;28;20048;-67
2024/01/03 07:45:23;;;;;;;28.98;3.45;;;8.60;99.90;;;;;;5085902;28;20058;-68
2024/01/03 07:47:49;;;;;;;28.25;3.78;;;8.60;99.90;;;;;;5087172;28;20064;-69
2024/01/03 07:50:15;;;;;;;24.92;2.67;;;8.60;99.90;;;;;;5115649;27;20047;-68
2024/01/03 07:52:43;;;;;;;21.52;3.55;;;8.60;99.90;;;;;;5116999;27;20090;-67
2024/01/03 07:55:10;;;;;;;19.02;2.70;;;8.60;99.90;;;;;;5079132;28;20063;-67
2024/01/03 07:57:36;;;;;;;16.63;3.00;;;8.70;99.90;;;;;;5115224;27;20048;-67
2024/01/03 08:00:02;;;;;;;19.48;2.90;;;8.60;99.90;;;;;;5080432;28;22289;-67
2024/01/03 08:02:29;;;;;;;20.98;3.08;;;8.60;99.90;;;;;;5118317;27;20040;-65
2024/01/03 08:04:54;;;;;;;22.60;3.10;;;8.60;99.90;;;;;;5086544;28;20514;-67
2024/01/03 08:07:23;;;;;;;17.92;3.13;;;8.60;99.90;;;;;;5121142;27;21020;-66
2024/01/03 08:09:50;;;;;;;22.48;2.97;;;8.50;99.90;;;;;;5119791;27;20047;-66
2024/01/03 08:12:16;;;;;;;23.58;3.28;;;8.60;99.90;;;;;;5089286;27;20101;-66
2024/01/03 08:14:42;;;;;;;25.70;3.35;;;8.50;99.90;;;;;;5086170;27;20048;-66
2024/01/03 08:17:08;;;;;;;28.58;4.60;;;8.60;99.90;;;;;;5121453;27;20039;-66
2024/01/03 08:19:33;;;;;;;21.25;2.67;;;8.60;99.90;;;;;;5074565;28;20077;-66
2024/01/03 08:22:00;;;;;;;27.10;3.10;;;8.50;99.90;;;;;;5088431;27;20043;-67
2024/01/03 08:24:26;;;;;;;18.45;2.05;;;8.50;99.90;;;;;;5071603;28;20055;-66
2024/01/03 08:26:52;;;;;;;19.02;2.85;;;8.50;99.90;;;;;;5083217;28;20078;-67
2024/01/03 08:29:18;;;;;;;15.18;2.92;;;8.60;99.90;;;;;;5120481;27;20109;-67
2024/01/03 08:31:48;;;;;;;17.33;2.58;;;8.60;99.90;;;;;;5090167;28;20045;-67
2024/01/03 08:34:14;;;;;;;17.05;2.30;;;8.50;99.90;;;;;;5094213;28;20553;-66
2024/01/03 08:36:41;;;;;;;15.40;2.30;;;8.50;99.90;;;;;;5098363;28;20040;-67
2024/01/03 08:39:07;;;;;;;15.02;2.65;;;8.50;99.90;;;;;;5087957;28;20048;-67
2024/01/03 08:41:34;;;;;;;11.70;2.67;;;8.60;99.90;;;;;;5089825;28;20130;-69
2024/01/03 08:44:02;;;;;;;15.48;2.40;;;8.50;99.90;;;;;;5091571;28;20108;-67
2024/01/03 08:46:30;;;;;;;22.20;2.17;;;8.50;99.90;;;;;;5097338;27;20066;-66
2024/01/03 08:48:56;;;;;;;21.30;3.00;;;8.50;99.90;;;;;;5077116;28;20044;-67
2024/01/03 08:51:23;;;;;;;13.10;2.22;;;8.50;99.90;;;;;;5123950;27;20087;-68
2024/01/03 08:53:50;;;;;;;12.20;2.00;;;8.50;99.90;;;;;;5074729;27;20841;-66
2024/01/03 08:56:17;;;;;;;29.58;3.20;;;8.50;99.90;;;;;;5101557;27;20056;-66
2024/01/03 08:58:45;;;;;;;19.92;2.75;;;8.50;99.90;;;;;;5092313;28;20050;-66
2024/01/03 09:01:22;;;;;;;19.85;3.00;;;8.50;99.90;;;;;;5099847;28;20046;-66
2024/01/03 09:03:48;;;;;;;21.05;3.20;;;8.70;99.90;;;;;;5080254;28;20558;-67
2024/01/03 09:06:18;;;;;;;20.23;2.88;;;8.50;99.90;;;;;;5121437;27;20051;-66
2024/01/03 09:08:46;;;;;;;17.35;2.58;;;8.50;99.90;;;;;;5108467;27;20053;-66
2024/01/03 09:11:13;;;;;;;18.98;2.60;;;8.60;99.90;;;;;;5084946;27;20047;-67
2024/01/03 09:13:39;;;;;;;20.92;2.72;;;8.50;99.90;;;;;;5120508;27;20048;-67
2024/01/03 09:16:07;;;;;;;20.20;2.47;;;8.50;99.90;;;;;;5080725;28;20116;-67
2024/01/03 09:18:33;;;;;;;18.98;2.47;;;8.50;99.90;;;;;;5087209;28;20446;-66
2024/01/03 09:21:01;;;;;;;19.80;2.63;;;8.50;99.90;;;;;;5088160;28;20047;-67
2024/01/03 09:23:27;;;;;;;18.00;2.60;;;8.50;99.90;;;;;;5088867;28;20048;-67
2024/01/03 09:25:55;;;;;;;14.32;2.35;;;8.50;99.90;;;;;;5099151;27;20526;-66
2024/01/03 09:28:25;;;;;;;23.02;2.92;;;8.50;99.90;;;;;;5096812;27;20085;-67
2024/01/03 09:30:51;;;;;;;19.58;2.00;;;8.50;99.90;;;;;;5098430;28;20039;-67
2024/01/03 09:33:17;;;;;;;12.93;2.10;;;8.60;99.90;;;;;;5103931;28;20612;-67
2024/01/03 09:35:44;;;;;;;20.33;3.63;;;8.60;99.90;;;;;;5089816;27;20043;-67
2024/01/03 09:38:09;;;;;;;17.55;2.40;;;8.60;99.90;;;;;;5097044;28;20508;-68
2024/01/03 09:40:35;;;;;;;13.98;2.33;;;8.60;99.90;;;;;;5127041;27;20040;-67
2024/01/03 09:43:02;;;;;;;19.67;2.20;;;8.60;99.90;;;;;;5095653;28;20048;-66
2024/01/03 09:45:30;;;;;;;14.88;2.08;;;8.60;99.90;;;;;;5088555;28;20176;-67
2024/01/03 09:47:56;;;;;;;18.13;2.28;;;8.60;99.90;;;;;;5081904;28;20035;-67
2024/01/03 09:50:21;;;;;;;16.45;2.03;;;8.60;99.90;;;;;;5086618;28;20092;-66
2024/01/03 09:52:49;;;;;;;10.77;2.28;;;8.60;99.90;;;;;;5089760;28;20051;-69
2024/01/03 09:55:15;;;;;;;13.05;1.55;;;8.60;99.90;;;;;;5080854;27;20043;-67
2024/01/03 09:57:42;;;;;;;15.02;1.67;;;8.60;99.90;;;;;;5107241;27;20086;-67
2024/01/03 10:00:08;;;;;;;14.85;1.75;;;8.60;99.90;;;;;;5105909;27;20449;-68
2024/01/03 10:02:38;;;;;;;11.95;1.70;;;8.60;99.90;;;;;;5108336;27;20036;-66
2024/01/03 10:05:04;;;;;;;15.05;1.85;;;8.60;99.90;;;;;;5122957;27;20502;-67
2024/01/03 10:07:35;;;;;;;11.27;2.00;;;8.60;99.90;;;;;;5122760;27;20122;-67
2024/01/03 10:10:02;;;;;;;16.55;2.03;;;8.60;99.90;;;;;;5099801;27;20062;-67
2024/01/03 10:12:34;;;;;;;17.02;2.63;;;8.70;99.90;;;;;;5085752;27;20048;-66
2024/01/03 10:15:17;;;;;;;22.98;2.75;;;8.70;99.90;;;;;;5115877;27;20101;-67
2024/01/03 10:17:45;;;;;;;18.70;3.08;;;8.70;99.90;;;;;;5085911;27;20122;-67
2024/01/03 10:20:24;;;;;;;18.48;2.92;;;8.70;99.90;;;;;;5067870;27;20052;-68
2024/01/03 10:23:04;;;;;;;16.73;2.55;;;8.70;99.90;;;;;;5116207;27;20040;-67
2024/01/03 10:25:30;;;;;;;17.15;2.40;;;8.70;99.90;;;;;;5082974;28;20062;-68
2024/01/03 10:28:04;;;;;;;14.60;2.47;;;8.70;99.90;;;;;;5116757;27;20574;-65
2024/01/03 10:30:30;;;;;;;18.73;2.78;;;8.70;99.90;;;;;;5111831;27;20470;-67
2024/01/03 10:32:58;;;;;;;18.23;2.47;;;8.70;99.90;;;;;;5085168;27;20565;-67
2024/01/03 10:35:32;;;;;;;14.50;1.77;;;9.10;99.90;;;;;;5069360;28;20043;-67
2024/01/03 10:38:00;;;;;;;13.38;2.50;;;8.70;99.90;;;;;;5083295;28;20055;-67
2024/01/03 10:40:28;;;;;;;21.30;2.42;;;8.80;99.90;;;;;;5081132;28;20270;-67
2024/01/03 10:42:55;;;;;;;10.30;2.00;;;8.90;99.90;;;;;;5082478;28;20192;-67
2024/01/03 10:45:21;;;;;;;13.93;1.67;;;8.90;99.90;;;;;;5120582;27;20457;-66
2024/01/03 10:47:48;;;;;;;16.83;2.13;;;9.00;99.90;;;;;;5080273;28;20575;-67
2024/01/03 10:50:14;;;;;;;15.68;2.00;;;9.00;99.90;;;;;;5079419;28;20756;-66
2024/01/03 10:52:43;;;;;;;12.32;2.00;;;9.10;99.90;;;;;;5079756;28;20438;-67
2024/01/03 10:55:22;;;;;;;17.17;2.55;;;9.10;99.90;;;;;;5080438;28;20457;-66
2024/01/03 10:57:56;;;;;;;14.65;2.45;;;9.10;99.90;;;;;;5078962;28;20075;-67
2024/01/03 11:00:38;;;;;;;16.67;3.03;;;9.10;99.90;;;;;;5079247;28;20204;-66
2024/01/03 11:03:40;;;;;;;15.30;2.17;;;9.10;99.90;;;;;;5082706;28;20059;-66
2024/01/03 11:06:19;;;;;;;16.70;1.95;;;9.10;99.90;;;;;;5079990;28;20054;-66
2024/01/03 11:08:54;;;;;;;12.70;2.13;;;9.10;99.90;;;;;;5083188;28;20129;-66
2024/01/03 11:11:39;;;;;;;14.30;2.33;;;9.10;99.90;;;;;;5066085;28;20051;-66
2024/01/03 11:14:17;;;;;;;26.55;3.20;;;9.20;99.90;;;;;;5080025;28;20050;-66
2024/01/03 11:16:44;;;;;;;23.67;3.42;;;9.20;99.90;;;;;;5066251;28;20036;-67
2024/01/03 11:19:11;;;;;;;25.90;3.47;;;9.20;99.90;;;;;;5064160;28;20134;-67
2024/01/03 11:21:44;;;;;;;22.40;2.70;;;9.20;99.90;;;;;;5079390;28;20040;-67
2024/01/03 11:24:18;;;;;;;24.70;3.13;;;9.20;99.90;;;;;;5080992;28;20139;-67
2024/01/03 11:26:56;;;;;;;22.33;4.35;;;9.20;99.90;;;;;;5064579;28;20485;-67
2024/01/03 11:29:39;;;;;;;24.27;2.72;;;9.30;99.90;;;;;;5081908;28;20069;-66
2024/01/03 11:32:32;;;;;;;21.58;3.35;;;9.80;99.90;;;;;;5114909;27;20152;-65
2024/01/03 11:34:58;;;;;;;18.35;3.15;;;9.30;99.90;;;;;;5107782;27;20070;-66
2024/01/03 11:37:24;;;;;;;19.20;3.17;;;9.30;99.90;;;;;;5070124;28;20048;-66
2024/01/03 11:39:53;;;;;;;21.90;2.80;;;9.30;99.90;;;;;;5085560;28;20032;-66
2024/01/03 11:42:25;;;;;;;18.48;3.25;;;9.40;99.90;;;;;;5103054;27;20992;-66
2024/01/03 11:45:06;;;;;;;22.08;3.53;;;9.40;99.90;;;;;;5117691;27;20051;-66
2024/01/03 11:47:45;;;;;;;17.88;2.55;;;9.40;99.90;;;;;;5100673;27;20047;-67
2024/01/03 11:50:14;;;;;;;15.75;2.75;;;9.40;99.90;;;;;;5113217;27;20056;-67
2024/01/03 11:52:42;;;;;;;17.00;2.90;;;9.40;99.90;;;;;;5087942;27;20051;-67
2024/01/03 11:55:13;;;;;;;20.05;2.97;;;9.40;99.90;;;;;;5070895;28;20055;-66
2024/01/03 11:57:47;;;;;;;24.92;3.22;;;9.50;99.90;;;;;;5091683;27;20074;-66
2024/01/03 12:00:21;;;;;;;20.08;3.88;;;9.50;99.90;;;;;;5118970;27;20104;-75
2024/01/03 12:02:54;;;;;;;16.48;2.45;;;9.50;99.90;;;;;;5091525;27;20043;-67
2024/01/03 12:05:21;;;;;;;16.15;3.30;;;9.50;99.90;;;;;;5117075;27;20059;-67
2024/01/03 12:07:48;;;;;;;13.18;2.50;;;9.50;99.90;;;;;;5119551;27;20127;-67
2024/01/03 12:10:15;;;;;;;19.98;3.08;;;9.70;99.90;;;;;;5082421;27;20054;-66
2024/01/03 12:12:43;;;;;;;19.52;2.25;;;9.50;99.90;;;;;;5113661;27;20610;-66
2024/01/03 12:15:18;;;;;;;23.25;2.83;;;9.50;99.90;;;;;;5083149;27;20171;-66
2024/01/03 12:17:44;;;;;;;21.02;2.25;;;9.50;99.90;;;;;;5071949;28;20051;-66
2024/01/03 12:20:13;;;;;;;19.58;3.10;;;9.50;99.90;;;;;;5085585;28;20798;-66
2024/01/03 12:22:39;;;;;;;21.73;2.97;;;9.50;99.90;;;;;;5071732;28;20530;-66
2024/01/03 12:25:05;;;;;;;16.05;2.78;;;9.50;99.90;;;;;;5073384;28;20052;-66
2024/01/03 12:27:33;;;;;;;20.38;2.72;;;9.60;99.90;;;;;;5085958;27;20042;-67
2024/01/03 12:30:18;;;;;;;18.10;3.40;;;9.50;99.90;;;;;;5118491;27;20162;-67
2024/01/03 12:32:46;;;;;;;22.13;3.17;;;9.50;99.90;;;;;;5091328;27;20714;-66
2024/01/03 12:35:12;;;;;;;14.90;3.08;;;9.50;99.90;;;;;;5098103;27;20104;-67
2024/01/03 12:37:46;;;;;;;17.45;2.70;;;9.50;99.90;;;;;;5123009;27;20519;-67
2024/01/03 12:40:16;;;;;;;20.42;2.53;;;9.50;99.90;;;;;;5129528;27;20051;-67
2024/01/03 12:42:46;;;;;;;21.48;3.72;;;9.50;99.90;;;;;;5131741;27;20048;-65
2024/01/03 12:45:12;;;;;;;18.52;2.70;;;9.50;99.90;;;;;;5079025;28;20056;-66
2024/01/03 12:47:39;;;;;;;23.02;3.28;;;9.50;99.90;;;;;;5122534;27;20419;-66
2024/01/03 12:50:08;;;;;;;22.92;3.08;;;9.50;99.90;;;;;;5103237;27;20495;-66